Time;durP1;ratioP1;P1;durP2;ratioP2;P2;SDS_P1;SDS_P2;PMS_P1;PMS_P2;Temp;Humidity;BMP_temperature;BMP_pressure;BME280_temperature;BME280_humidity;BME280_pressure;Samples;Min_cycle;Max_cycle;Signal;HPM_P1;HPM_P2
2023/08/17 00:02:46;;;;;;;3.17;2.40;;;;;20.40;101426.00;;;;5044799;28;20298;-68
2023/08/17 00:05:34;;;;;;;3.47;2.80;;;;;20.30;101421.00;;;;5043223;28;20225;-68
2023/08/17 00:08:20;;;;;;;3.80;2.60;;;;;20.30;101428.00;;;;5043256;28;20869;-68
2023/08/17 00:11:07;;;;;;;6.37;2.60;;;;;20.20;101442.00;;;;5042968;28;20785;-68
2023/08/17 00:13:53;;;;;;;4.67;2.30;;;;;20.20;101449.00;;;;5037008;28;20234;-68
2023/08/17 00:16:41;;;;;;;3.07;2.50;;;;;20.10;101451.00;;;;5043738;28;20262;-68
2023/08/17 00:19:28;;;;;;;7.57;2.87;;;;;20.20;101447.00;;;;5036717;28;20243;-68
2023/08/17 00:22:16;;;;;;;4.07;3.03;;;;;20.20;101452.00;;;;5020942;28;20285;-68
2023/08/17 00:25:04;;;;;;;6.77;3.00;;;;;20.10;101458.00;;;;5019335;28;20277;-68
2023/08/17 00:27:50;;;;;;;6.47;3.10;;;;;20.10;101461.00;;;;5019802;28;20227;-68
2023/08/17 00:30:37;;;;;;;4.50;2.90;;;;;20.00;101473.00;;;;5024702;28;20232;-69
2023/08/17 00:33:24;;;;;;;8.20;2.90;;;;;19.90;101468.00;;;;5024635;28;20290;-68
2023/08/17 00:36:10;;;;;;;3.97;3.00;;;;;19.90;101465.00;;;;5027394;28;20234;-68
2023/08/17 00:38:58;;;;;;;4.73;3.10;;;;;19.90;101469.00;;;;5021704;28;20799;-68
2023/08/17 00:41:44;;;;;;;3.83;2.80;;;;;19.80;101477.00;;;;5032596;28;20229;-68
2023/08/17 00:44:31;;;;;;;10.07;3.40;;;;;19.80;101482.00;;;;5026238;28;20317;-68
2023/08/17 00:47:18;;;;;;;3.30;3.00;;;;;19.70;101481.00;;;;5027568;28;20383;-68
2023/08/17 00:50:05;;;;;;;5.47;3.30;;;;;19.70;101487.00;;;;5022412;28;20582;-68
2023/08/17 00:52:52;;;;;;;4.13;3.07;;;;;19.60;101488.00;;;;5022862;28;20376;-68
2023/08/17 00:55:40;;;;;;;6.27;3.23;;;;;19.50;101487.00;;;;5033647;28;20234;-68
2023/08/17 00:58:27;;;;;;;6.93;3.80;;;;;19.50;101488.00;;;;5034957;28;20233;-67
2023/08/17 01:01:14;;;;;;;6.00;3.87;;;;;19.40;101481.00;;;;5028307;28;20234;-68
2023/08/17 01:04:01;;;;;;;7.43;3.90;;;;;19.40;101492.00;;;;5022080;28;20239;-68
2023/08/17 01:06:47;;;;;;;7.20;4.27;;;;;19.40;101490.00;;;;5026137;28;20229;-68
2023/08/17 01:09:33;;;;;;;7.37;3.90;;;;;19.20;101489.00;;;;5027398;28;20233;-68
2023/08/17 01:12:29;;;;;;;4.53;3.90;;;;;19.30;101492.00;;;;5021321;28;20234;-68
2023/08/17 01:15:20;;;;;;;7.97;4.33;;;;;19.20;101479.00;;;;5022811;28;20230;-69
2023/08/17 01:18:16;;;;;;;10.20;4.10;;;;;19.20;101466.00;;;;5020817;28;20300;-68
2023/08/17 01:21:04;;;;;;;8.80;3.77;;;;;19.10;101455.00;;;;5023740;28;20230;-68
2023/08/17 01:23:53;;;;;;;5.60;4.03;;;;;19.20;101460.00;;;;5027509;28;20694;-68
2023/08/17 01:26:39;;;;;;;6.63;4.63;;;;;19.20;101458.00;;;;5020211;28;20294;-68
2023/08/17 01:29:26;;;;;;;5.33;3.90;;;;;19.10;101453.00;;;;5022509;28;20229;-68
2023/08/17 01:32:19;;;;;;;8.80;4.60;;;;;19.10;101443.00;;;;5029146;28;20237;-68
2023/08/17 01:35:15;;;;;;;7.93;4.07;;;;;19.10;101439.00;;;;5027719;28;20236;-67
2023/08/17 01:38:07;;;;;;;7.90;4.00;;;;;18.90;101430.00;;;;5022265;28;20773;-68
2023/08/17 01:40:57;;;;;;;5.13;4.20;;;;;18.80;101433.00;;;;5031407;28;20261;-68
2023/08/17 01:43:45;;;;;;;6.00;4.13;;;;;18.80;101438.00;;;;5030591;28;20236;-67
2023/08/17 01:46:34;;;;;;;7.20;4.23;;;;;18.60;101424.00;;;;5029227;28;20237;-68
2023/08/17 01:49:21;;;;;;;7.07;4.23;;;;;18.60;101413.00;;;;5023909;28;20268;-68
2023/08/17 01:52:07;;;;;;;5.33;3.93;;;;;18.60;101413.00;;;;5029124;28;20230;-67
2023/08/17 01:54:54;;;;;;;5.97;4.00;;;;;18.60;101422.00;;;;5030544;28;20225;-68
2023/08/17 01:57:42;;;;;;;6.97;3.90;;;;;18.60;101415.00;;;;5022620;28;20358;-68
2023/08/17 02:00:28;;;;;;;6.97;3.90;;;;;18.50;101401.00;;;;5024106;28;20233;-68
2023/08/17 02:03:15;;;;;;;6.97;4.30;;;;;18.40;101391.00;;;;5023211;28;20234;-68
2023/08/17 02:06:02;;;;;;;6.30;4.17;;;;;18.40;101388.00;;;;5019811;28;20301;-68
2023/08/17 02:08:48;;;;;;;8.77;4.17;;;;;18.30;101378.00;;;;5025949;28;20229;-68
2023/08/17 02:11:34;;;;;;;7.20;4.47;;;;;18.30;101375.00;;;;5023778;28;20237;-68
2023/08/17 02:14:22;;;;;;;7.53;4.10;;;;;18.30;101380.00;;;;5027321;28;20245;-68
2023/08/17 02:17:09;;;;;;;8.17;4.20;;;;;18.20;101378.00;;;;5018135;28;20237;-68
2023/08/17 02:19:55;;;;;;;6.37;3.80;;;;;18.10;101373.00;;;;5030070;28;20246;-68
2023/08/17 02:22:41;;;;;;;6.93;4.07;;;;;18.20;101372.00;;;;5018377;28;20612;-68
2023/08/17 02:25:33;;;;;;;7.50;4.33;;;;;18.20;101375.00;;;;5027035;28;20248;-68
2023/08/17 02:28:20;;;;;;;8.43;4.30;;;;;18.20;101374.00;;;;5029817;28;20746;-68
2023/08/17 02:31:08;;;;;;;4.97;3.90;;;;;18.20;101378.00;;;;5035271;28;20267;-68
2023/08/17 02:33:58;;;;;;;5.00;4.17;;;;;18.20;101390.00;;;;5025869;28;20229;-67
2023/08/17 02:36:44;;;;;;;5.63;4.23;;;;;18.20;101385.00;;;;5024894;28;20734;-68
2023/08/17 02:39:31;;;;;;;6.30;4.10;;;;;18.20;101385.00;;;;5026368;28;20244;-68
2023/08/17 02:42:17;;;;;;;6.93;4.30;;;;;18.20;101380.00;;;;5024415;28;20233;-68
2023/08/17 02:45:05;;;;;;;8.00;4.23;;;;;18.20;101389.00;;;;5024015;28;20659;-68
2023/08/17 02:47:52;;;;;;;7.43;4.67;;;;;18.20;101388.00;;;;5024280;28;20236;-68
2023/08/17 02:50:39;;;;;;;6.43;4.50;;;;;18.20;101379.00;;;;5024194;28;20250;-68
2023/08/17 02:53:25;;;;;;;7.00;4.37;;;;;18.00;101384.00;;;;5022593;28;20241;-68
2023/08/17 02:56:12;;;;;;;9.13;4.87;;;;;18.10;101384.00;;;;5016748;28;20288;-68
2023/08/17 02:58:58;;;;;;;7.63;4.67;;;;;18.10;101381.00;;;;5018757;28;20248;-68
2023/08/17 03:01:46;;;;;;;8.93;4.50;;;;;18.20;101382.00;;;;5023515;28;20860;-68
2023/08/17 03:04:34;;;;;;;6.90;4.53;;;;;18.20;101390.00;;;;5015502;28;20283;-68
2023/08/17 03:07:20;;;;;;;11.53;4.80;;;;;18.20;101384.00;;;;5013756;28;20609;-68
2023/08/17 03:10:07;;;;;;;10.83;5.23;;;;;18.20;101386.00;;;;5018822;28;20232;-68
2023/08/17 03:12:54;;;;;;;7.03;4.93;;;;;18.20;101384.00;;;;5024957;28;20299;-68
2023/08/17 03:15:41;;;;;;;9.87;5.23;;;;;18.20;101391.00;;;;5024938;28;20229;-68
2023/08/17 03:18:27;;;;;;;8.03;5.30;;;;;18.20;101385.00;;;;5021848;28;20256;-68
2023/08/17 03:21:15;;;;;;;10.27;5.37;;;;;18.10;101387.00;;;;5023027;28;20721;-68
2023/08/17 03:24:02;;;;;;;8.20;5.13;;;;;18.10;101387.00;;;;5016960;28;20229;-67
2023/08/17 03:26:49;;;;;;;8.57;5.63;;;;;18.10;101385.00;;;;5021020;28;20623;-68
2023/08/17 03:29:35;;;;;;;6.57;4.80;;;;;18.10;101386.00;;;;5028783;28;20720;-68
2023/08/17 03:32:22;;;;;;;9.57;4.87;;;;;18.10;101387.00;;;;5022402;28;20229;-68
2023/08/17 03:35:09;;;;;;;10.53;5.70;;;;;18.00;101390.00;;;;5017981;28;20601;-68
2023/08/17 03:37:57;;;;;;;8.33;5.03;;;;;18.10;101384.00;;;;5024109;28;20426;-67
2023/08/17 03:40:43;;;;;;;10.40;5.40;;;;;18.10;101386.00;;;;5031494;28;20237;-68
2023/08/17 03:43:29;;;;;;;7.90;5.13;;;;;18.10;101382.00;;;;5022549;28;20277;-68
2023/08/17 03:46:16;;;;;;;8.77;5.57;;;;;18.10;101380.00;;;;5014321;28;20241;-67
2023/08/17 03:49:02;;;;;;;9.30;4.83;;;;;18.00;101385.00;;;;5017175;28;20279;-68
2023/08/17 03:51:49;;;;;;;6.57;4.90;;;;;18.00;101380.00;;;;5029962;28;20374;-68
2023/08/17 03:54:37;;;;;;;7.17;4.53;;;;;18.00;101389.00;;;;5022640;28;20241;-68
2023/08/17 03:57:24;;;;;;;9.47;4.83;;;;;18.10;101379.00;;;;5019193;28;20280;-67
2023/08/17 04:00:11;;;;;;;14.27;5.20;;;;;18.10;101378.00;;;;5019826;28;20229;-69
2023/08/17 04:02:58;;;;;;;7.50;5.20;;;;;18.00;101383.00;;;;5024078;28;20233;-68
2023/08/17 04:05:44;;;;;;;8.50;4.80;;;;;18.00;101373.00;;;;5026555;28;20356;-68
2023/08/17 04:08:31;;;;;;;6.87;4.80;;;;;18.10;101376.00;;;;5022985;28;20357;-68
2023/08/17 04:11:19;;;;;;;8.00;4.60;;;;;18.00;101365.00;;;;5017425;28;20333;-68
2023/08/17 04:14:06;;;;;;;10.47;4.80;;;;;18.10;101376.00;;;;5024429;28;20320;-69
2023/08/17 04:16:52;;;;;;;7.03;4.50;;;;;18.10;101375.00;;;;5022252;28;20613;-69
2023/08/17 04:19:38;;;;;;;9.00;4.63;;;;;18.10;101373.00;;;;5024407;28;20232;-68
2023/08/17 04:22:25;;;;;;;8.83;4.70;;;;;18.10;101370.00;;;;5018217;28;20283;-68
2023/08/17 04:25:12;;;;;;;9.13;4.93;;;;;18.20;101373.00;;;;5023450;28;20229;-69
2023/08/17 04:27:59;;;;;;;8.63;4.97;;;;;18.10;101370.00;;;;5022686;28;20233;-68
2023/08/17 04:30:47;;;;;;;9.57;5.03;;;;;18.20;101372.00;;;;5021026;28;20234;-69
2023/08/17 04:33:33;;;;;;;7.33;4.87;;;;;18.20;101371.00;;;;5017927;28;20234;-69
2023/08/17 04:36:20;;;;;;;7.27;4.57;;;;;18.20;101372.00;;;;5023356;28;20229;-69
2023/08/17 04:39:07;;;;;;;6.37;4.67;;;;;18.20;101377.00;;;;5016355;28;20312;-69
2023/08/17 04:41:54;;;;;;;9.77;4.80;;;;;18.20;101379.00;;;;5023838;28;20229;-67
2023/08/17 04:44:42;;;;;;;6.67;4.80;;;;;18.30;101387.00;;;;5021477;28;20237;-69
2023/08/17 04:47:29;;;;;;;8.33;4.80;;;;;18.20;101389.00;;;;5024369;28;20327;-69
2023/08/17 04:50:16;;;;;;;5.77;4.70;;;;;18.10;101381.00;;;;5019492;28;20719;-68
2023/08/17 04:53:02;;;;;;;7.10;4.83;;;;;18.10;101381.00;;;;5022991;28;20722;-69
2023/08/17 04:55:49;;;;;;;10.63;5.00;;;;;18.20;101381.00;;;;5020518;28;20237;-69
2023/08/17 04:58:35;;;;;;;8.37;4.50;;;;;18.20;101395.00;;;;5034546;28;20241;-68
2023/08/17 05:01:23;;;;;;;7.77;4.60;;;;;18.20;101390.00;;;;5045939;28;20229;-69
2023/08/17 05:04:09;;;;;;;6.70;5.17;;;;;18.30;101389.00;;;;5028002;28;20905;-68
2023/08/17 05:06:56;;;;;;;5.47;4.60;;;;;18.20;101391.00;;;;5021810;28;20240;-69
2023/08/17 05:09:42;;;;;;;9.20;4.90;;;;;18.30;101382.00;;;;5023218;28;20233;-69
2023/08/17 05:12:29;;;;;;;7.97;4.30;;;;;18.30;101383.00;;;;5026770;28;20237;-69
2023/08/17 05:15:15;;;;;;;8.73;4.57;;;;;18.30;101389.00;;;;5014995;28;20886;-69
2023/08/17 05:18:04;;;;;;;7.47;4.67;;;;;18.30;101383.00;;;;5026936;28;20631;-69
2023/08/17 05:20:50;;;;;;;7.47;4.63;;;;;18.30;101382.00;;;;5027179;28;20304;-69
2023/08/17 05:23:37;;;;;;;9.23;4.93;;;;;18.30;101386.00;;;;5027593;28;20384;-70
2023/08/17 05:26:23;;;;;;;9.63;4.30;;;;;18.30;101384.00;;;;5020435;28;20237;-69
2023/08/17 05:29:10;;;;;;;7.13;4.73;;;;;18.30;101394.00;;;;5027339;28;20245;-69
2023/08/17 05:31:56;;;;;;;7.70;5.10;;;;;18.30;101406.00;;;;5024145;28;20650;-69
2023/08/17 05:34:44;;;;;;;7.20;4.77;;;;;18.30;101407.00;;;;5030776;28;20750;-69
2023/08/17 05:37:30;;;;;;;7.50;4.33;;;;;18.30;101404.00;;;;5027495;28;20296;-70
2023/08/17 05:40:17;;;;;;;10.40;4.60;;;;;18.30;101396.00;;;;5009888;28;20280;-69
2023/08/17 05:43:04;;;;;;;8.07;4.27;;;;;18.30;101406.00;;;;5024519;28;20300;-69
2023/08/17 05:45:50;;;;;;;6.90;4.40;;;;;18.30;101408.00;;;;5016892;28;20251;-70
2023/08/17 05:48:37;;;;;;;7.87;3.97;;;;;18.30;101402.00;;;;5017809;28;20233;-69
2023/08/17 05:51:24;;;;;;;6.93;4.37;;;;;18.40;101402.00;;;;5020524;28;20237;-69
2023/08/17 05:54:11;;;;;;;9.43;4.40;;;;;18.30;101405.00;;;;5020478;28;20229;-69
2023/08/17 05:56:58;;;;;;;9.57;5.10;;;;;18.40;101403.00;;;;5022190;28;20300;-69
2023/08/17 05:59:44;;;;;;;8.30;4.17;;;;;18.30;101393.00;;;;5025822;28;20606;-69
2023/08/17 06:02:31;;;;;;;6.27;4.40;;;;;18.40;101404.00;;;;5017101;28;20229;-69
2023/08/17 06:05:18;;;;;;;5.37;4.30;;;;;18.40;101407.00;;;;5022088;28;20726;-69
2023/08/17 06:08:06;;;;;;;7.83;4.87;;;;;18.40;101399.00;;;;5022068;28;20241;-71
2023/08/17 06:10:53;;;;;;;8.27;4.53;;;;;18.40;101400.00;;;;5023220;28;20233;-71
2023/08/17 06:13:39;;;;;;;9.13;4.90;;;;;18.40;101402.00;;;;5023171;28;20280;-71
2023/08/17 06:16:25;;;;;;;7.00;4.23;;;;;18.50;101409.00;;;;5025309;28;20230;-71
2023/08/17 06:19:11;;;;;;;10.37;4.80;;;;;18.30;101405.00;;;;5025705;28;20950;-69
2023/08/17 06:21:58;;;;;;;7.67;4.70;;;;;18.30;101409.00;;;;5021538;28;20229;-70
2023/08/17 06:24:45;;;;;;;9.13;4.97;;;;;18.30;101402.00;;;;5025913;28;20715;-69
2023/08/17 06:27:33;;;;;;;8.00;5.03;;;;;18.30;101407.00;;;;5020061;28;20281;-69
2023/08/17 06:30:20;;;;;;;7.30;4.73;;;;;18.30;101422.00;;;;5034107;28;20224;-70
2023/08/17 06:33:06;;;;;;;10.53;4.90;;;;;18.30;101408.00;;;;5035387;28;20279;-70
2023/08/17 06:35:52;;;;;;;7.00;5.00;;;;;18.30;101409.00;;;;5035626;28;20230;-70
2023/08/17 06:38:39;;;;;;;8.37;4.77;;;;;18.40;101407.00;;;;5018513;28;20232;-70
2023/08/17 06:41:26;;;;;;;8.27;4.93;;;;;18.50;101406.00;;;;5022572;28;20705;-71
2023/08/17 06:44:13;;;;;;;7.73;4.77;;;;;18.40;101410.00;;;;5010593;28;20242;-69
2023/08/17 06:46:59;;;;;;;8.63;4.77;;;;;18.40;101409.00;;;;5025119;28;20245;-68
2023/08/17 06:49:46;;;;;;;8.83;4.93;;;;;18.50;101412.00;;;;5020646;28;20234;-70
2023/08/17 06:52:34;;;;;;;7.27;5.03;;;;;18.60;101412.00;;;;5021276;28;20238;-67
2023/08/17 06:55:20;;;;;;;8.27;5.20;;;;;18.70;101412.00;;;;5024719;28;20241;-69
2023/08/17 06:58:08;;;;;;;8.13;5.03;;;;;18.70;101414.00;;;;5022945;28;20232;-69
2023/08/17 07:00:54;;;;;;;7.70;5.10;;;;;18.70;101419.00;;;;5034041;28;20245;-68
2023/08/17 07:03:40;;;;;;;6.67;4.70;;;;;18.70;101422.00;;;;5026585;28;20355;-68
2023/08/17 07:06:28;;;;;;;6.87;5.07;;;;;18.90;101427.00;;;;5019689;28;20284;-68
2023/08/17 07:09:14;;;;;;;10.80;5.57;;;;;18.70;101423.00;;;;5024446;28;20236;-68
2023/08/17 07:12:00;;;;;;;7.40;5.20;;;;;18.80;101431.00;;;;5022517;28;20229;-68
2023/08/17 07:14:48;;;;;;;7.27;5.20;;;;;18.70;101430.00;;;;5019663;28;20241;-69
2023/08/17 07:17:36;;;;;;;9.47;5.70;;;;;18.60;101433.00;;;;5020007;28;20333;-67
2023/08/17 07:20:22;;;;;;;9.53;5.47;;;;;18.70;101422.00;;;;5024307;28;20364;-67
2023/08/17 07:23:09;;;;;;;9.30;5.40;;;;;18.80;101426.00;;;;5025841;28;20361;-68
2023/08/17 07:25:55;;;;;;;9.40;5.77;;;;;18.80;101428.00;;;;5036434;28;20240;-67
2023/08/17 07:28:42;;;;;;;11.60;5.77;;;;;18.80;101436.00;;;;5021335;28;20230;-68
2023/08/17 07:31:30;;;;;;;6.87;5.37;;;;;18.80;101427.00;;;;5017753;28;20290;-67
2023/08/17 07:34:17;;;;;;;11.77;5.37;;;;;18.90;101431.00;;;;5023879;28;20241;-68
2023/08/17 07:37:05;;;;;;;7.23;5.53;;;;;18.80;101441.00;;;;5020974;28;20252;-67
2023/08/17 07:39:52;;;;;;;9.67;5.83;;;;;18.90;101443.00;;;;5033192;28;20299;-68
2023/08/17 07:42:38;;;;;;;8.40;6.13;;;;;18.90;101444.00;;;;5028057;28;20233;-67
2023/08/17 07:45:25;;;;;;;12.27;6.60;;;;;18.90;101452.00;;;;5023308;28;20281;-68
2023/08/17 07:48:12;;;;;;;7.50;5.40;;;;;19.00;101442.00;;;;5024114;28;20726;-67
2023/08/17 07:50:59;;;;;;;9.90;6.03;;;;;18.90;101442.00;;;;5019162;28;20229;-67
2023/08/17 07:53:45;;;;;;;8.83;6.07;;;;;19.00;101438.00;;;;5020374;28;20229;-67
2023/08/17 07:56:32;;;;;;;9.70;6.40;;;;;19.10;101443.00;;;;5026410;28;20308;-67
2023/08/17 07:59:18;;;;;;;8.57;6.13;;;;;19.00;101445.00;;;;5027666;28;20322;-67
2023/08/17 08:02:05;;;;;;;10.77;6.30;;;;;19.10;101438.00;;;;5032337;28;20602;-67
2023/08/17 08:04:53;;;;;;;9.20;6.20;;;;;19.10;101442.00;;;;5030220;28;20238;-68
2023/08/17 08:07:39;;;;;;;8.30;6.43;;;;;19.30;101445.00;;;;5022055;28;20721;-67
2023/08/17 08:10:26;;;;;;;8.80;6.47;;;;;19.30;101462.00;;;;5023822;28;20239;-67
2023/08/17 08:13:13;;;;;;;13.67;6.47;;;;;19.30;101453.00;;;;5021722;28;20611;-68
2023/08/17 08:16:00;;;;;;;8.20;6.47;;;;;19.30;101452.00;;;;5014385;28;20990;-67
2023/08/17 08:18:47;;;;;;;11.07;6.80;;;;;19.40;101452.00;;;;5025005;28;20352;-69
2023/08/17 08:21:35;;;;;;;11.77;6.73;;;;;19.50;101450.00;;;;5026727;28;20249;-68
2023/08/17 08:24:23;;;;;;;10.57;6.83;;;;;19.50;101454.00;;;;5025811;28;20245;-68
2023/08/17 08:27:22;;;;;;;8.53;6.57;;;;;19.60;101460.00;;;;5034047;28;20450;-69
2023/08/17 08:30:09;;;;;;;11.00;7.33;;;;;19.70;101460.00;;;;5024282;28;20311;-68
2023/08/17 08:32:57;;;;;;;11.43;7.37;;;;;19.60;101456.00;;;;5028116;28;20657;-69
2023/08/17 08:35:43;;;;;;;12.07;7.03;;;;;19.50;101455.00;;;;5018059;28;20959;-68
2023/08/17 08:38:32;;;;;;;9.27;6.93;;;;;19.40;101457.00;;;;5023899;28;20822;-68
2023/08/17 08:41:18;;;;;;;11.90;7.60;;;;;19.40;101458.00;;;;5011577;28;20238;-70
2023/08/17 08:44:05;;;;;;;10.13;7.70;;;;;19.40;101458.00;;;;5020740;28;20254;-68
2023/08/17 08:46:54;;;;;;;10.23;6.83;;;;;19.40;101462.00;;;;5024061;28;20239;-69
2023/08/17 08:49:46;;;;;;;12.63;7.20;;;;;19.40;101463.00;;;;5015433;28;20230;-68
2023/08/17 08:52:35;;;;;;;12.50;7.53;;;;;19.40;101462.00;;;;5028744;28;20280;-68
2023/08/17 08:55:25;;;;;;;11.40;7.57;;;;;19.50;101464.00;;;;5031785;28;20237;-69
2023/08/17 08:58:12;;;;;;;10.60;7.57;;;;;19.60;101453.00;;;;5024042;28;20735;-67
2023/08/17 09:00:58;;;;;;;11.53;7.17;;;;;19.60;101462.00;;;;5020351;28;20366;-68
2023/08/17 09:03:48;;;;;;;14.70;7.77;;;;;19.60;101454.00;;;;5037825;28;20233;-68
2023/08/17 09:06:35;;;;;;;13.53;7.80;;;;;19.60;101459.00;;;;5039324;28;20685;-68
2023/08/17 09:09:22;;;;;;;11.53;7.90;;;;;19.60;101452.00;;;;5042686;28;21117;-67
2023/08/17 09:12:15;;;;;;;12.97;7.90;;;;;19.60;101453.00;;;;5066060;28;20844;-66
2023/08/17 09:15:15;;;;;;;13.77;7.53;;;;;19.70;101442.00;;;;5044615;28;20250;-67
2023/08/17 09:18:01;;;;;;;11.47;7.27;;;;;19.70;101440.00;;;;5060542;28;20254;-72
2023/08/17 09:20:48;;;;;;;11.60;7.00;;;;;19.80;101441.00;;;;5052557;28;20238;-68
2023/08/17 09:23:35;;;;;;;12.00;7.60;;;;;19.90;101436.00;;;;5054273;28;20256;-68
2023/08/17 09:26:23;;;;;;;11.30;7.63;;;;;19.90;101440.00;;;;5046500;28;20259;-69
2023/08/17 09:29:22;;;;;;;11.17;7.27;;;;;19.80;101439.00;;;;5035153;28;21106;-68
2023/08/17 09:32:10;;;;;;;15.70;8.37;;;;;19.90;101442.00;;;;5022509;28;20234;-68
2023/08/17 09:34:56;;;;;;;13.27;7.77;;;;;19.90;101428.00;;;;5021700;28;20610;-68
2023/08/17 09:37:43;;;;;;;13.37;8.13;;;;;19.90;101427.00;;;;5020055;28;20747;-68
2023/08/17 09:40:29;;;;;;;15.33;7.97;;;;;20.10;101433.00;;;;5025286;28;20798;-68
2023/08/17 09:43:17;;;;;;;15.13;7.57;;;;;20.10;101432.00;;;;5027103;28;20239;-69
2023/08/17 09:46:07;;;;;;;13.03;8.57;;;;;20.20;101434.00;;;;5016567;28;20236;-69
2023/08/17 09:48:54;;;;;;;14.87;8.50;;;;;20.10;101438.00;;;;5020697;28;20290;-69
2023/08/17 09:51:43;;;;;;;15.07;8.77;;;;;20.00;101438.00;;;;5020398;28;20239;-68
2023/08/17 09:54:31;;;;;;;12.77;8.10;;;;;20.00;101430.00;;;;5016998;28;20306;-68
2023/08/17 09:57:19;;;;;;;15.97;8.43;;;;;20.10;101430.00;;;;5026496;28;20689;-68
2023/08/17 10:00:09;;;;;;;14.37;9.37;;;;;20.10;101433.00;;;;5022145;28;20252;-68
2023/08/17 10:03:02;;;;;;;15.07;8.70;;;;;20.20;101431.00;;;;5025238;28;20243;-69
2023/08/17 10:05:58;;;;;;;13.40;8.40;;;;;20.30;101415.00;;;;5026518;28;20231;-68
2023/08/17 10:08:49;;;;;;;12.30;7.97;;;;;20.40;101420.00;;;;5027064;28;20346;-69
2023/08/17 10:11:40;;;;;;;16.20;8.17;;;;;20.40;101421.00;;;;5024012;28;20365;-69
2023/08/17 10:14:31;;;;;;;11.13;8.00;;;;;20.50;101419.00;;;;5019234;28;20234;-68
2023/08/17 10:17:26;;;;;;;8.43;6.77;;;;;20.50;101425.00;;;;5022946;28;20254;-68
2023/08/17 10:20:15;;;;;;;11.77;7.83;;;;;20.60;101426.00;;;;5035239;28;20236;-67
2023/08/17 10:23:11;;;;;;;13.23;8.07;;;;;20.70;101427.00;;;;5027193;28;20236;-69
2023/08/17 10:25:58;;;;;;;10.77;7.93;;;;;20.60;101417.00;;;;5026899;28;20710;-68
2023/08/17 10:28:45;;;;;;;14.33;7.90;;;;;20.60;101414.00;;;;5025943;28;20236;-68
2023/08/17 10:31:35;;;;;;;13.87;8.03;;;;;20.60;101419.00;;;;5036130;28;20740;-68
2023/08/17 10:34:22;;;;;;;12.87;7.97;;;;;20.60;101412.00;;;;5030632;28;20906;-69
2023/08/17 10:37:12;;;;;;;13.03;8.10;;;;;20.50;101413.00;;;;5036632;28;20243;-69
2023/08/17 10:39:58;;;;;;;12.23;8.10;;;;;20.60;101422.00;;;;5024817;28;20273;-68
2023/08/17 10:42:46;;;;;;;15.07;8.90;;;;;20.60;101422.00;;;;5029967;28;20232;-68
2023/08/17 10:45:34;;;;;;;14.27;8.20;;;;;20.50;101424.00;;;;5026564;28;20239;-69
2023/08/17 10:48:29;;;;;;;13.07;8.23;;;;;20.50;101418.00;;;;5025934;28;20263;-68
2023/08/17 10:51:16;;;;;;;12.80;7.70;;;;;20.40;101419.00;;;;5022099;28;20252;-69
2023/08/17 10:54:05;;;;;;;13.40;7.77;;;;;20.40;101425.00;;;;5022107;28;20267;-69
2023/08/17 10:56:51;;;;;;;13.30;8.13;;;;;20.40;101427.00;;;;5019113;28;20315;-69
2023/08/17 10:59:38;;;;;;;14.57;8.80;;;;;20.50;101423.00;;;;5021090;28;20249;-69
2023/08/17 11:02:24;;;;;;;15.97;8.90;;;;;20.40;101424.00;;;;5024745;28;20675;-69
2023/08/17 11:05:12;;;;;;;13.10;8.60;;;;;20.40;101424.00;;;;5025788;28;20234;-69
2023/08/17 11:07:58;;;;;;;13.67;8.77;;;;;20.40;101424.00;;;;5018845;28;20290;-67
2023/08/17 11:10:57;;;;;;;15.27;8.73;;;;;20.40;101429.00;;;;5020737;28;20938;-70
2023/08/17 11:13:46;;;;;;;13.57;9.37;;;;;20.50;101426.00;;;;5028011;28;20798;-69
2023/08/17 11:16:33;;;;;;;16.47;9.80;;;;;20.60;101420.00;;;;5021795;28;20243;-70
2023/08/17 11:19:19;;;;;;;16.47;8.97;;;;;20.60;101416.00;;;;5027888;28;20381;-70
2023/08/17 11:22:07;;;;;;;14.33;9.30;;;;;20.60;101418.00;;;;5030274;28;20229;-67
2023/08/17 11:24:53;;;;;;;16.30;9.60;;;;;20.70;101420.00;;;;5037502;28;20235;-69
2023/08/17 11:27:41;;;;;;;17.23;10.00;;;;;20.70;101416.00;;;;5033663;28;20267;-70
2023/08/17 11:30:28;;;;;;;15.70;9.43;;;;;20.70;101425.00;;;;5024492;28;20235;-69
2023/08/17 11:33:14;;;;;;;17.03;9.47;;;;;20.70;101422.00;;;;5026532;28;20239;-69
2023/08/17 11:36:03;;;;;;;14.13;9.50;;;;;20.70;101421.00;;;;5043278;28;20952;-69
2023/08/17 11:38:49;;;;;;;14.30;9.47;;;;;20.80;101419.00;;;;5012927;28;20239;-69
2023/08/17 11:41:36;;;;;;;16.30;9.50;;;;;20.80;101420.00;;;;5042013;28;20359;-70
2023/08/17 11:44:23;;;;;;;16.30;9.53;;;;;20.80;101430.00;;;;5024866;28;20235;-70
2023/08/17 11:47:11;;;;;;;18.17;9.40;;;;;20.70;101424.00;;;;5025009;28;20236;-69
2023/08/17 11:50:00;;;;;;;13.43;9.30;;;;;20.80;101421.00;;;;5020980;28;20234;-69
2023/08/17 11:53:00;;;;;;;16.17;9.93;;;;;20.80;101423.00;;;;5022836;28;20640;-70
2023/08/17 11:55:47;;;;;;;13.63;8.77;;;;;20.90;101427.00;;;;5031189;28;20293;-68
2023/08/17 11:58:43;;;;;;;15.17;9.23;;;;;21.00;101429.00;;;;5020338;28;20233;-68
2023/08/17 12:01:34;;;;;;;14.93;9.43;;;;;21.10;101431.00;;;;5018729;28;20372;-68
2023/08/17 12:04:22;;;;;;;13.93;9.27;;;;;21.20;101429.00;;;;5026338;28;20237;-67
2023/08/17 12:07:08;;;;;;;15.67;9.40;;;;;21.20;101437.00;;;;5021677;28;20379;-68
2023/08/17 12:09:55;;;;;;;16.10;9.77;;;;;21.30;101431.00;;;;5023002;28;20599;-68
2023/08/17 12:12:41;;;;;;;14.97;8.70;;;;;21.30;101430.00;;;;5022587;28;20806;-68
2023/08/17 12:15:31;;;;;;;15.63;10.07;;;;;21.30;101427.00;;;;5043668;28;20290;-68
2023/08/17 12:18:21;;;;;;;20.07;9.53;;;;;21.30;101431.00;;;;5028104;28;20244;-69
2023/08/17 12:21:08;;;;;;;15.13;9.43;;;;;21.30;101427.00;;;;5027809;28;20229;-68
2023/08/17 12:23:54;;;;;;;16.37;9.63;;;;;21.50;101427.00;;;;5023199;28;20248;-70
2023/08/17 12:26:42;;;;;;;18.17;10.33;;;;;21.70;101418.00;;;;5023797;28;20231;-70
2023/08/17 12:29:29;;;;;;;13.47;9.53;;;;;21.60;101421.00;;;;5039357;28;20238;-68
2023/08/17 12:32:16;;;;;;;16.23;10.17;;;;;21.60;101420.00;;;;5020603;28;20245;-67
2023/08/17 12:35:05;;;;;;;14.70;8.83;;;;;21.50;101421.00;;;;5016192;28;20872;-67
2023/08/17 12:37:52;;;;;;;17.40;10.03;;;;;21.50;101408.00;;;;5023403;28;20364;-68
2023/08/17 12:40:38;;;;;;;13.53;9.33;;;;;21.40;101410.00;;;;5023917;28;20225;-68
2023/08/17 12:43:25;;;;;;;15.03;9.40;;;;;21.50;101413.00;;;;5020691;28;20363;-68
2023/08/17 12:46:11;;;;;;;13.30;9.23;;;;;21.40;101413.00;;;;5017511;28;20244;-68
2023/08/17 12:48:58;;;;;;;13.73;9.43;;;;;21.50;101417.00;;;;5023077;28;20360;-69
2023/08/17 12:51:45;;;;;;;15.10;9.47;;;;;21.50;101420.00;;;;5021564;28;20306;-67
2023/08/17 12:54:31;;;;;;;17.23;10.50;;;;;21.40;101421.00;;;;5033919;28;20299;-67
2023/08/17 12:57:18;;;;;;;18.27;10.73;;;;;21.40;101417.00;;;;5027863;28;20257;-69
2023/08/17 13:00:06;;;;;;;17.00;10.80;;;;;21.50;101418.00;;;;5028195;28;20303;-68
2023/08/17 13:02:52;;;;;;;18.17;11.20;;;;;21.50;101409.00;;;;5018139;28;20299;-70
2023/08/17 13:05:39;;;;;;;15.57;9.97;;;;;21.50;101408.00;;;;5022179;28;20727;-69
2023/08/17 13:08:27;;;;;;;16.90;11.13;;;;;21.60;101412.00;;;;5016269;28;20230;-68
2023/08/17 13:11:13;;;;;;;14.67;9.80;;;;;21.50;101415.00;;;;5021781;28;20237;-68
2023/08/17 13:13:59;;;;;;;15.13;9.57;;;;;21.60;101409.00;;;;5020183;28;20229;-69
2023/08/17 13:16:46;;;;;;;17.27;10.23;;;;;21.60;101409.00;;;;5021093;28;20895;-68
2023/08/17 13:19:32;;;;;;;16.97;10.93;;;;;21.60;101420.00;;;;5020785;28;20249;-69
2023/08/17 13:22:18;;;;;;;17.87;10.00;;;;;21.50;101422.00;;;;5022845;28;20237;-68
2023/08/17 13:25:07;;;;;;;18.17;10.83;;;;;21.40;101418.00;;;;5030022;28;20228;-69
2023/08/17 13:27:54;;;;;;;16.17;10.57;;;;;21.40;101425.00;;;;5032876;28;20612;-69
2023/08/17 13:30:40;;;;;;;18.43;10.90;;;;;21.40;101426.00;;;;5023412;28;20248;-68
2023/08/17 13:33:28;;;;;;;15.57;10.57;;;;;21.30;101422.00;;;;5016818;28;20229;-69
2023/08/17 13:36:14;;;;;;;20.83;10.00;;;;;21.40;101422.00;;;;5021954;28;20253;-68
2023/08/17 13:39:00;;;;;;;20.23;11.30;;;;;21.20;101424.00;;;;5027268;28;20308;-67
2023/08/17 13:41:48;;;;;;;15.77;10.70;;;;;21.20;101434.00;;;;5024718;28;20225;-68
2023/08/17 13:44:35;;;;;;;18.37;10.43;;;;;21.20;101433.00;;;;5034765;28;20312;-68